Time;durP1;ratioP1;P1;durP2;ratioP2;P2;SDS_P1;SDS_P2;PMS_P1;PMS_P2;Temp;Humidity;BMP_temperature;BMP_pressure;BME280_temperature;BME280_humidity;BME280_pressure;Samples;Min_cycle;Max_cycle;Signal;HPM_P1;HPM_P2
2023/12/31 00:00:37;;;;;;;7.53;6.55;;;;;;;;;;2027558;29;20032;-83
2023/12/31 00:01:58;;;;;;;6.72;6.10;;;;;;;;;;2025989;29;20037;-82
2023/12/31 00:03:19;;;;;;;6.35;5.78;;;;;;;;;;2022698;29;20045;-82
2023/12/31 00:04:41;;;;;;;8.05;6.18;;;;;;;;;;2022852;29;20036;-82
2023/12/31 00:06:02;;;;;;;8.77;6.15;;;;;;;;;;2022200;29;20049;-82
2023/12/31 00:07:37;;;;;;;6.50;5.95;;;;;;;;;;2032205;29;20465;-82
2023/12/31 00:09:07;;;;;;;7.38;6.30;;;;;;;;;;2028699;29;20032;-82
2023/12/31 00:10:28;;;;;;;6.90;6.07;;;;;;;;;;2039492;29;20020;-82
2023/12/31 00:12:01;;;;;;;6.13;5.60;;;;;;;;;;2033019;29;20028;-83
2023/12/31 00:13:35;;;;;;;7.13;6.43;;;;;;;;;;2040794;29;20032;-83
2023/12/31 00:14:56;;;;;;;7.32;5.70;;;;;;;;;;2033034;29;20481;-83
2023/12/31 00:16:16;;;;;;;7.35;6.65;;;;;;;;;;2030768;29;20445;-82
2023/12/31 00:17:37;;;;;;;10.00;6.30;;;;;;;;;;2033236;29;20032;-83
2023/12/31 00:18:58;;;;;;;7.88;7.18;;;;;;;;;;2038515;29;20024;-81
2023/12/31 00:20:19;;;;;;;6.80;6.15;;;;;;;;;;2041534;29;20303;-82
2023/12/31 00:21:41;;;;;;;7.05;5.95;;;;;;;;;;2033243;29;20048;-83
2023/12/31 00:23:02;;;;;;;6.18;5.47;;;;;;;;;;2038139;29;20066;-82
2023/12/31 00:24:41;;;;;;;6.82;6.07;;;;;;;;;;2032338;29;20029;-82
2023/12/31 00:26:11;;;;;;;7.53;6.82;;;;;;;;;;2040370;29;20031;-81
2023/12/31 00:27:32;;;;;;;6.05;5.50;;;;;;;;;;2033586;29;20036;-82
2023/12/31 00:29:02;;;;;;;9.07;8.38;;;;;;;;;;2037441;29;20032;-83
2023/12/31 00:30:33;;;;;;;6.35;5.75;;;;;;;;;;2040359;29;20487;-82
2023/12/31 00:31:57;;;;;;;6.43;5.82;;;;;;;;;;2027209;29;20040;-83
2023/12/31 00:33:21;;;;;;;6.93;6.32;;;;;;;;;;2031699;29;20075;-82
2023/12/31 00:34:42;;;;;;;8.13;6.20;;;;;;;;;;2028203;29;20033;-81
2023/12/31 00:36:12;;;;;;;8.93;5.88;;;;;;;;;;2025884;29;20028;-81
2023/12/31 00:37:34;;;;;;;7.13;5.85;;;;;;;;;;2025812;29;20040;-81
2023/12/31 00:38:56;;;;;;;7.85;5.57;;;;;;;;;;2030694;29;20047;-82
2023/12/31 00:40:20;;;;;;;6.40;5.80;;;;;;;;;;2033317;29;20374;-82
2023/12/31 00:41:44;;;;;;;8.88;6.13;;;;;;;;;;2033900;29;20024;-82
2023/12/31 00:43:08;;;;;;;26.77;10.57;;;;;;;;;;2031962;29;20032;-81
2023/12/31 00:44:29;;;;;;;6.65;6.00;;;;;;;;;;2032831;29;20028;-81
2023/12/31 00:45:50;;;;;;;7.30;6.00;;;;;;;;;;2034562;29;20040;-85
2023/12/31 00:49:05;;;;;;;7.05;6.35;;;;;;;;;;2033656;29;20032;-84
2023/12/31 00:50:26;;;;;;;6.82;6.15;;;;;;;;;;2035135;29;20489;-85
2023/12/31 00:51:50;;;;;;;6.25;5.43;;;;;;;;;;2030895;29;20559;-85
2023/12/31 00:53:11;;;;;;;9.57;6.22;;;;;;;;;;2038858;29;20040;-85
2023/12/31 00:54:34;;;;;;;6.43;5.95;;;;;;;;;;2025450;29;20049;-84
2023/12/31 00:55:55;;;;;;;7.03;6.28;;;;;;;;;;2019045;29;20028;-84
2023/12/31 00:57:16;;;;;;;7.13;6.43;;;;;;;;;;2033013;29;20500;-83
2023/12/31 00:58:40;;;;;;;7.43;5.78;;;;;;;;;;2028160;29;20500;-85
2023/12/31 01:00:05;;;;;;;5.75;5.18;;;;;;;;;;2037600;29;20032;-85
2023/12/31 01:01:26;;;;;;;7.57;6.80;;;;;;;;;;2036265;29;20032;-84
2023/12/31 01:02:47;;;;;;;7.13;5.90;;;;;;;;;;2037820;29;20031;-85
2023/12/31 01:04:23;;;;;;;6.28;5.65;;;;;;;;;;2041039;29;20401;-84
2023/12/31 01:05:44;;;;;;;6.68;5.78;;;;;;;;;;2026495;29;20489;-85
2023/12/31 01:07:05;;;;;;;7.75;7.07;;;;;;;;;;2030087;29;20040;-85
2023/12/31 01:08:35;;;;;;;8.77;8.00;;;;;;;;;;2025926;29;20100;-85
2023/12/31 01:09:56;;;;;;;7.53;6.90;;;;;;;;;;2032328;29;20036;-84
2023/12/31 01:11:34;;;;;;;6.47;5.88;;;;;;;;;;2035925;29;20039;-85
2023/12/31 01:13:13;;;;;;;6.25;5.80;;;;;;;;;;2033786;29;20153;-86
2023/12/31 01:14:37;;;;;;;7.88;5.95;;;;;;;;;;2040871;29;20028;-84
2023/12/31 01:15:58;;;;;;;7.95;7.15;;;;;;;;;;2032232;29;20024;-85
2023/12/31 01:17:19;;;;;;;9.15;8.45;;;;;;;;;;2034012;29;20092;-85
2023/12/31 01:18:40;;;;;;;6.10;5.47;;;;;;;;;;2030431;29;20024;-85
2023/12/31 01:20:09;;;;;;;7.60;6.88;;;;;;;;;;2039228;29;20028;-85
2023/12/31 01:21:34;;;;;;;6.70;6.00;;;;;;;;;;2036422;29;20056;-84
2023/12/31 01:23:00;;;;;;;8.27;6.28;;;;;;;;;;2031461;29;20434;-85
2023/12/31 01:24:22;;;;;;;7.15;6.25;;;;;;;;;;2039246;29;20039;-85
2023/12/31 01:25:43;;;;;;;7.30;5.90;;;;;;;;;;2041976;29;20032;-85
2023/12/31 01:27:06;;;;;;;6.13;5.03;;;;;;;;;;2034451;29;20024;-85
2023/12/31 01:28:27;;;;;;;6.35;5.75;;;;;;;;;;2032333;29;20040;-85
2023/12/31 01:31:41;;;;;;;6.47;5.97;;;;;;;;;;2025608;29;20060;-85
2023/12/31 01:33:02;;;;;;;6.25;5.68;;;;;;;;;;2035525;29;20029;-85
2023/12/31 01:34:26;;;;;;;6.05;5.55;;;;;;;;;;2028058;29;20037;-85
2023/12/31 01:35:47;;;;;;;6.20;5.68;;;;;;;;;;2035087;29;20033;-85
2023/12/31 01:37:08;;;;;;;6.22;5.70;;;;;;;;;;2028637;29;20588;-85
2023/12/31 01:38:29;;;;;;;8.05;5.82;;;;;;;;;;2028533;29;20037;-85
2023/12/31 01:40:02;;;;;;;6.05;5.55;;;;;;;;;;2033920;29;20063;-85
2023/12/31 01:41:32;;;;;;;6.80;6.07;;;;;;;;;;2033871;29;20032;-85
2023/12/31 01:42:53;;;;;;;6.40;5.80;;;;;;;;;;2033798;29;20092;-85
2023/12/31 01:44:14;;;;;;;5.85;5.43;;;;;;;;;;2040596;29;20051;-85
2023/12/31 01:45:35;;;;;;;6.63;6.03;;;;;;;;;;2035898;29;20028;-85
2023/12/31 01:46:56;;;;;;;7.75;5.85;;;;;;;;;;2038392;29;20047;-85
2023/12/31 01:48:35;;;;;;;9.10;6.57;;;;;;;;;;2036311;29;20460;-84
2023/12/31 01:49:56;;;;;;;7.10;5.70;;;;;;;;;;2033843;29;20043;-86
2023/12/31 01:51:20;;;;;;;7.63;5.82;;;;;;;;;;2029342;29;20017;-85
2023/12/31 01:52:42;;;;;;;6.75;5.90;;;;;;;;;;2039658;29;20032;-85
2023/12/31 01:54:04;;;;;;;6.25;5.72;;;;;;;;;;2043012;29;20055;-85
2023/12/31 01:55:52;;;;;;;8.43;5.82;;;;;;;;;;2034379;29;20511;-85
2023/12/31 01:57:14;;;;;;;7.90;5.78;;;;;;;;;;2034676;29;20039;-83
2023/12/31 01:58:36;;;;;;;5.88;5.38;;;;;;;;;;2041075;29;20036;-82
2023/12/31 01:59:58;;;;;;;6.70;6.00;;;;;;;;;;2036500;29;20043;-83
2023/12/31 02:01:26;;;;;;;6.25;5.30;;;;;;;;;;2029999;29;20036;-83
2023/12/31 02:02:53;;;;;;;8.38;5.80;;;;;;;;;;2034404;29;20039;-83
2023/12/31 02:04:15;;;;;;;7.22;6.13;;;;;;;;;;2041002;29;20039;-83
2023/12/31 02:05:39;;;;;;;6.53;5.85;;;;;;;;;;2036364;29;20075;-83
2023/12/31 02:07:00;;;;;;;7.45;5.78;;;;;;;;;;2033435;29;20408;-84
2023/12/31 02:08:27;;;;;;;6.28;5.65;;;;;;;;;;2034327;29;20036;-83
2023/12/31 02:09:51;;;;;;;6.30;5.68;;;;;;;;;;2041372;29;20031;-83
2023/12/31 02:11:12;;;;;;;7.72;5.18;;;;;;;;;;2036186;29;20500;-84
2023/12/31 02:12:33;;;;;;;6.07;5.63;;;;;;;;;;2041709;29;20519;-84
2023/12/31 02:14:03;;;;;;;26.20;9.73;;;;;;;;;;2031272;29;20099;-83
2023/12/31 02:15:31;;;;;;;6.50;5.90;;;;;;;;;;2041489;29;20483;-84
2023/12/31 02:16:52;;;;;;;6.50;5.90;;;;;;;;;;2035884;29;20396;-82
2023/12/31 02:18:12;;;;;;;6.47;5.95;;;;;;;;;;2034904;29;20036;-83
2023/12/31 02:19:34;;;;;;;7.95;6.80;;;;;;;;;;2039074;29;20036;-84
2023/12/31 02:22:50;;;;;;;11.00;7.15;;;;;;;;;;2033942;29;20396;-83
2023/12/31 02:24:13;;;;;;;6.85;6.25;;;;;;;;;;2040590;29;20050;-83
2023/12/31 02:25:43;;;;;;;7.05;6.35;;;;;;;;;;2035967;29;20032;-83
2023/12/31 02:27:04;;;;;;;8.77;6.35;;;;;;;;;;2035514;29;20040;-83
2023/12/31 02:28:40;;;;;;;7.32;6.63;;;;;;;;;;2032136;29;20028;-82
2023/12/31 02:30:10;;;;;;;7.88;6.57;;;;;;;;;;2040952;29;20059;-84
2023/12/31 02:32:02;;;;;;;7.10;5.78;;;;;;;;;;2036492;29;20040;-83
2023/12/31 02:33:35;;;;;;;7.05;6.35;;;;;;;;;;2042041;29;20460;-81
2023/12/31 02:34:58;;;;;;;6.82;6.20;;;;;;;;;;2029138;29;20512;-83
2023/12/31 02:36:22;;;;;;;6.78;6.18;;;;;;;;;;2032051;29;20396;-84
2023/12/31 02:37:43;;;;;;;6.95;6.35;;;;;;;;;;2030739;29;20040;-82
2023/12/31 02:39:07;;;;;;;7.32;6.70;;;;;;;;;;2031748;29;20029;-83
2023/12/31 02:40:39;;;;;;;9.90;6.00;;;;;;;;;;2039322;29;20024;-83
2023/12/31 02:42:14;;;;;;;6.55;6.00;;;;;;;;;;2033031;29;20432;-83
2023/12/31 02:43:35;;;;;;;7.18;6.43;;;;;;;;;;2030408;29;20401;-83
2023/12/31 02:45:14;;;;;;;8.50;6.30;;;;;;;;;;2030961;29;20059;-83
2023/12/31 02:46:35;;;;;;;7.07;6.47;;;;;;;;;;2026566;29;20036;-83
2023/12/31 02:47:59;;;;;;;6.80;6.15;;;;;;;;;;2031015;29;20033;-83
2023/12/31 02:49:34;;;;;;;6.22;5.65;;;;;;;;;;2034561;29;20043;-83
2023/12/31 02:50:58;;;;;;;5.53;5.13;;;;;;;;;;2040790;29;20114;-82
2023/12/31 02:52:43;;;;;;;8.80;7.20;;;;;;;;;;2033954;29;20409;-84
2023/12/31 02:56:03;;;;;;;7.65;6.60;;;;;;;;;;2026494;29;20045;-83
2023/12/31 02:57:27;;;;;;;7.25;6.25;;;;;;;;;;2035836;29;20033;-84
2023/12/31 02:58:48;;;;;;;6.80;6.10;;;;;;;;;;2035620;29;20488;-84
2023/12/31 03:00:15;;;;;;;6.10;5.50;;;;;;;;;;2038261;29;20032;-84
2023/12/31 03:01:51;;;;;;;6.60;6.10;;;;;;;;;;2041158;29;20032;-83
2023/12/31 03:03:12;;;;;;;7.18;6.28;;;;;;;;;;2040877;29;20046;-84
2023/12/31 03:04:33;;;;;;;35.40;12.55;;;;;;;;;;2031781;29;20036;-83
2023/12/31 03:05:57;;;;;;;6.30;5.80;;;;;;;;;;2041623;29;20079;-83
2023/12/31 03:07:21;;;;;;;8.48;6.03;;;;;;;;;;2035852;29;20043;-84
2023/12/31 03:08:42;;;;;;;8.48;6.63;;;;;;;;;;2034923;29;20032;-83
2023/12/31 03:10:09;;;;;;;7.25;6.10;;;;;;;;;;2041925;29;20098;-83
2023/12/31 03:11:30;;;;;;;7.53;6.22;;;;;;;;;;2034257;29;20025;-84
2023/12/31 03:13:09;;;;;;;6.38;5.63;;;;;;;;;;2030738;29;20035;-84
2023/12/31 03:14:30;;;;;;;28.15;8.82;;;;;;;;;;2032547;29;20037;-83
2023/12/31 03:16:39;;;;;;;8.30;6.85;;;;;;;;;;2033203;29;20507;-82
2023/12/31 03:18:37;;;;;;;7.93;5.80;;;;;;;;;;2024936;29;20053;-83
2023/12/31 03:19:58;;;;;;;7.85;6.30;;;;;;;;;;2017271;29;20034;-82
2023/12/31 03:21:19;;;;;;;7.65;6.15;;;;;;;;;;2038769;29;20054;-83
2023/12/31 03:22:40;;;;;;;7.20;6.50;;;;;;;;;;2024549;29;20043;-84
2023/12/31 03:24:01;;;;;;;7.60;6.53;;;;;;;;;;2031401;29;20048;-83
2023/12/31 03:25:22;;;;;;;7.75;6.50;;;;;;;;;;2025424;29;20048;-84
2023/12/31 03:26:43;;;;;;;7.65;6.00;;;;;;;;;;2034395;29;20032;-84
2023/12/31 03:28:04;;;;;;;9.50;6.35;;;;;;;;;;2041757;29;20468;-84
2023/12/31 03:29:26;;;;;;;8.60;6.93;;;;;;;;;;2036444;29;20040;-84
2023/12/31 03:31:03;;;;;;;8.48;6.60;;;;;;;;;;2041093;29;20039;-83
2023/12/31 03:32:26;;;;;;;7.20;6.07;;;;;;;;;;2024910;29;20612;-83
2023/12/31 03:33:54;;;;;;;7.47;6.75;;;;;;;;;;2033219;29;20043;-83
2023/12/31 03:35:15;;;;;;;9.65;6.32;;;;;;;;;;2033879;29;20036;-84
2023/12/31 03:36:42;;;;;;;8.13;6.07;;;;;;;;;;2040818;29;20481;-84
2023/12/31 03:38:09;;;;;;;7.38;6.70;;;;;;;;;;2034578;29;20408;-84
2023/12/31 03:39:41;;;;;;;9.15;6.35;;;;;;;;;;2038512;29;20031;-83
2023/12/31 03:41:01;;;;;;;7.05;6.55;;;;;;;;;;2039628;29;20381;-84
2023/12/31 03:42:34;;;;;;;7.50;6.53;;;;;;;;;;2035811;29;20028;-85
2023/12/31 03:43:59;;;;;;;6.30;5.75;;;;;;;;;;2029614;29;20032;-84
2023/12/31 03:45:20;;;;;;;7.35;6.50;;;;;;;;;;2038024;29;20032;-84
2023/12/31 03:46:59;;;;;;;8.90;6.03;;;;;;;;;;2041195;29;20492;-84
2023/12/31 03:48:20;;;;;;;7.95;6.15;;;;;;;;;;2041804;29;20027;-85
2023/12/31 03:49:43;;;;;;;7.60;6.90;;;;;;;;;;2035341;29;20031;-84
2023/12/31 03:51:04;;;;;;;7.20;6.07;;;;;;;;;;2041060;29;20333;-84
2023/12/31 03:52:25;;;;;;;8.15;6.80;;;;;;;;;;2035929;29;20488;-84
2023/12/31 03:53:52;;;;;;;8.27;6.55;;;;;;;;;;2031170;29;20436;-84
2023/12/31 03:55:47;;;;;;;34.53;10.85;;;;;;;;;;2038423;29;20043;-85
2023/12/31 03:57:08;;;;;;;7.45;6.25;;;;;;;;;;2032764;29;20029;-84
2023/12/31 03:58:32;;;;;;;7.07;6.55;;;;;;;;;;2038884;29;20035;-84
2023/12/31 04:00:18;;;;;;;7.82;6.60;;;;;;;;;;2034930;29;20036;-84
2023/12/31 04:01:48;;;;;;;7.60;6.82;;;;;;;;;;2040319;29;20035;-84
2023/12/31 04:03:21;;;;;;;9.13;6.80;;;;;;;;;;2032713;29;20492;-84
2023/12/31 04:04:51;;;;;;;8.98;7.15;;;;;;;;;;2033408;29;20032;-84
2023/12/31 04:06:14;;;;;;;9.82;7.45;;;;;;;;;;2029901;29;20061;-84
2023/12/31 04:07:39;;;;;;;8.15;7.28;;;;;;;;;;2037765;29;20046;-84
2023/12/31 04:09:12;;;;;;;7.00;6.40;;;;;;;;;;2040636;29;20042;-84
2023/12/31 04:10:33;;;;;;;7.45;6.68;;;;;;;;;;2032444;29;20036;-84
2023/12/31 04:11:53;;;;;;;8.10;5.75;;;;;;;;;;2034050;29;20148;-83
2023/12/31 04:13:21;;;;;;;9.63;6.60;;;;;;;;;;2031417;29;20035;-83
2023/12/31 04:14:42;;;;;;;8.82;6.13;;;;;;;;;;2033830;29;20031;-83
2023/12/31 04:16:14;;;;;;;6.65;6.05;;;;;;;;;;2033169;29;20419;-83
2023/12/31 04:17:47;;;;;;;7.93;5.90;;;;;;;;;;2042236;29;20028;-87
2023/12/31 04:19:09;;;;;;;7.90;7.03;;;;;;;;;;2034585;29;20025;-87
2023/12/31 04:20:39;;;;;;;8.82;6.35;;;;;;;;;;2041589;29;20031;-87
2023/12/31 04:22:00;;;;;;;10.32;7.00;;;;;;;;;;2028330;29;20049;-87
2023/12/31 04:23:21;;;;;;;7.22;6.63;;;;;;;;;;2014689;29;20093;-88
2023/12/31 04:24:42;;;;;;;9.75;6.97;;;;;;;;;;2010934;29;20034;-88
2023/12/31 04:26:32;;;;;;;6.50;5.90;;;;;;;;;;2022526;29;20025;-87
2023/12/31 04:28:15;;;;;;;7.65;7.05;;;;;;;;;;2018139;29;20063;-87
2023/12/31 04:29:36;;;;;;;8.25;5.95;;;;;;;;;;2016936;29;20046;-88
2023/12/31 04:30:57;;;;;;;7.30;5.90;;;;;;;;;;2011163;29;20030;-87
2023/12/31 04:32:18;;;;;;;8.85;6.78;;;;;;;;;;2014883;29;20036;-87
2023/12/31 04:33:44;;;;;;;8.45;7.03;;;;;;;;;;2011039;29;20030;-85
2023/12/31 04:37:19;;;;;;;7.53;6.28;;;;;;;;;;2016511;29;20253;-87
2023/12/31 04:38:40;;;;;;;8.43;6.18;;;;;;;;;;2003210;29;20027;-87
2023/12/31 04:40:01;;;;;;;6.57;6.05;;;;;;;;;;1998657;29;20030;-87
2023/12/31 04:41:53;;;;;;;8.60;7.32;;;;;;;;;;2007666;29;20021;-87
2023/12/31 04:43:14;;;;;;;7.88;6.63;;;;;;;;;;2002472;29;20444;-87
2023/12/31 04:44:47;;;;;;;7.80;7.03;;;;;;;;;;2002269;29;20617;-87
2023/12/31 04:46:08;;;;;;;9.35;7.65;;;;;;;;;;2009093;29;20410;-87
2023/12/31 04:47:29;;;;;;;7.20;6.50;;;;;;;;;;2002676;29;20034;-88
2023/12/31 04:48:50;;;;;;;11.43;7.45;;;;;;;;;;2008103;29;20033;-87
2023/12/31 04:50:11;;;;;;;7.22;6.68;;;;;;;;;;2016617;29;20033;-87
2023/12/31 04:51:41;;;;;;;9.20;7.00;;;;;;;;;;2020561;29;20029;-88
2023/12/31 04:53:02;;;;;;;7.55;6.47;;;;;;;;;;2024231;29;20466;-88
2023/12/31 04:54:23;;;;;;;9.00;6.28;;;;;;;;;;2031704;29;20043;-87
2023/12/31 04:56:09;;;;;;;31.27;11.80;;;;;;;;;;2031145;29;20039;-87
2023/12/31 04:57:36;;;;;;;7.53;6.47;;;;;;;;;;2033449;29;20024;-88
2023/12/31 04:59:03;;;;;;;6.57;6.07;;;;;;;;;;2033503;29;20477;-87
2023/12/31 05:00:24;;;;;;;9.90;6.93;;;;;;;;;;2024683;29;20033;-87
2023/12/31 05:01:48;;;;;;;9.85;6.65;;;;;;;;;;2019855;29;20048;-87
2023/12/31 05:03:09;;;;;;;8.48;7.07;;;;;;;;;;2023728;29;20043;-87
2023/12/31 05:04:31;;;;;;;8.60;6.55;;;;;;;;;;2020555;29;20037;-88
2023/12/31 05:05:52;;;;;;;14.27;8.48;;;;;;;;;;2019029;29;20345;-87
2023/12/31 05:07:13;;;;;;;6.93;6.20;;;;;;;;;;2026632;29;20050;-85
2023/12/31 05:08:33;;;;;;;8.15;7.25;;;;;;;;;;2034040;29;20032;-85
2023/12/31 05:09:55;;;;;;;7.80;7.10;;;;;;;;;;2026178;29;20028;-84
2023/12/31 05:11:16;;;;;;;7.37;6.67;;;;;;;;;;2027117;29;20028;-85
2023/12/31 05:12:40;;;;;;;8.93;6.28;;;;;;;;;;2030842;29;20051;-84
2023/12/31 05:14:01;;;;;;;10.20;7.32;;;;;;;;;;2025117;29;20065;-85
2023/12/31 05:15:35;;;;;;;9.88;7.20;;;;;;;;;;2031169;29;20036;-84
2023/12/31 05:16:56;;;;;;;7.15;6.50;;;;;;;;;;2024102;29;20124;-85
2023/12/31 05:18:17;;;;;;;8.75;6.70;;;;;;;;;;2031150;29;20035;-84
2023/12/31 05:19:41;;;;;;;9.57;6.75;;;;;;;;;;2028062;29;20378;-85
2023/12/31 05:21:03;;;;;;;28.73;9.57;;;;;;;;;;2033953;29;20032;-84
2023/12/31 05:22:24;;;;;;;9.02;7.07;;;;;;;;;;2034452;29;20044;-85
2023/12/31 05:23:50;;;;;;;8.85;6.70;;;;;;;;;;2029874;29;20040;-85
2023/12/31 05:25:26;;;;;;;7.70;7.00;;;;;;;;;;2033608;29;20028;-85
2023/12/31 05:26:47;;;;;;;8.32;6.75;;;;;;;;;;2024872;29;20149;-83
2023/12/31 05:28:08;;;;;;;7.38;6.63;;;;;;;;;;2023542;29;20036;-82
2023/12/31 05:29:39;;;;;;;8.00;7.18;;;;;;;;;;2029776;29;20028;-83
2023/12/31 05:31:00;;;;;;;12.15;7.25;;;;;;;;;;2027499;29;20040;-83
2023/12/31 05:32:21;;;;;;;7.55;6.68;;;;;;;;;;2032505;29;20039;-83
2023/12/31 05:33:43;;;;;;;9.00;7.43;;;;;;;;;;2027870;29;20028;-83
2023/12/31 05:35:04;;;;;;;8.43;6.90;;;;;;;;;;2026264;29;20108;-84
2023/12/31 05:36:31;;;;;;;7.20;6.50;;;;;;;;;;2026626;29;20405;-83
2023/12/31 05:37:52;;;;;;;8.63;7.03;;;;;;;;;;2032929;29;20035;-84
2023/12/31 05:39:35;;;;;;;7.57;6.50;;;;;;;;;;2033158;29;20516;-84
2023/12/31 05:41:08;;;;;;;8.50;6.82;;;;;;;;;;2027544;29;20040;-83
2023/12/31 05:42:29;;;;;;;8.70;7.15;;;;;;;;;;2033424;29;20413;-83
2023/12/31 05:43:50;;;;;;;7.88;6.95;;;;;;;;;;2031781;29;20033;-84
2023/12/31 05:45:23;;;;;;;8.43;7.63;;;;;;;;;;2032738;29;20032;-83
2023/12/31 05:46:44;;;;;;;7.35;6.75;;;;;;;;;;2040498;28;20511;-82
2023/12/31 05:48:17;;;;;;;7.72;6.63;;;;;;;;;;2034998;29;20036;-83
2023/12/31 05:49:41;;;;;;;6.75;6.20;;;;;;;;;;2032160;29;20032;-83
2023/12/31 05:51:03;;;;;;;8.85;7.65;;;;;;;;;;2036774;29;20419;-83
2023/12/31 05:52:33;;;;;;;8.55;7.25;;;;;;;;;;2040170;29;20427;-83
2023/12/31 05:54:03;;;;;;;7.53;6.78;;;;;;;;;;2033609;29;20039;-83
2023/12/31 05:55:24;;;;;;;7.20;6.50;;;;;;;;;;2025043;29;20030;-83
2023/12/31 05:56:45;;;;;;;6.90;6.30;;;;;;;;;;2021349;29;20077;-83
2023/12/31 05:58:06;;;;;;;7.15;6.55;;;;;;;;;;2030712;29;20029;-83
2023/12/31 05:59:27;;;;;;;8.40;7.60;;;;;;;;;;2029688;29;20401;-84
2023/12/31 06:00:51;;;;;;;9.25;6.45;;;;;;;;;;2041302;29;20112;-84
2023/12/31 06:02:15;;;;;;;9.50;7.78;;;;;;;;;;2034076;29;20032;-83
2023/12/31 06:03:38;;;;;;;7.13;6.38;;;;;;;;;;2031814;29;20413;-83
2023/12/31 06:05:02;;;;;;;14.32;8.18;;;;;;;;;;2024687;29;20033;-83
2023/12/31 06:06:35;;;;;;;8.68;6.78;;;;;;;;;;2027867;29;20051;-84
2023/12/31 06:08:04;;;;;;;8.95;7.00;;;;;;;;;;2026089;29;20042;-82
2023/12/31 06:09:40;;;;;;;7.88;6.78;;;;;;;;;;2024850;29;20025;-82
2023/12/31 06:11:04;;;;;;;9.43;7.32;;;;;;;;;;2032276;29;20032;-83
2023/12/31 06:12:33;;;;;;;7.57;6.88;;;;;;;;;;2030809;29;20107;-83
2023/12/31 06:14:02;;;;;;;8.80;7.18;;;;;;;;;;2019177;29;20048;-83
2023/12/31 06:17:22;;;;;;;6.97;6.28;;;;;;;;;;2025265;29;20481;-84
2023/12/31 06:19:17;;;;;;;10.10;6.63;;;;;;;;;;2029520;29;20040;-83
2023/12/31 06:20:38;;;;;;;7.88;7.20;;;;;;;;;;2017327;29;20029;-84
2023/12/31 06:21:59;;;;;;;7.55;6.88;;;;;;;;;;2015162;29;20041;-84
2023/12/31 06:23:21;;;;;;;11.23;9.85;;;;;;;;;;2015977;29;20033;-83
2023/12/31 06:24:44;;;;;;;8.20;7.13;;;;;;;;;;2022883;29;20049;-81
2023/12/31 06:26:05;;;;;;;11.38;7.72;;;;;;;;;;2030924;29;20032;-83
2023/12/31 06:27:26;;;;;;;7.75;6.20;;;;;;;;;;2031212;29;20057;-83
2023/12/31 06:29:09;;;;;;;9.10;7.55;;;;;;;;;;2028505;29;20028;-83
2023/12/31 06:30:50;;;;;;;8.23;7.45;;;;;;;;;;2033817;29;20053;-83
2023/12/31 06:32:27;;;;;;;15.05;8.27;;;;;;;;;;2028203;29;20040;-83
2023/12/31 06:34:03;;;;;;;7.40;6.53;;;;;;;;;;2019500;29;20029;-82
2023/12/31 06:35:30;;;;;;;9.77;8.80;;;;;;;;;;2017984;29;20029;-85
2023/12/31 06:36:51;;;;;;;10.00;7.60;;;;;;;;;;2015481;29;20052;-83
2023/12/31 06:38:12;;;;;;;8.45;7.30;;;;;;;;;;2022842;29;20028;-83
2023/12/31 06:39:41;;;;;;;10.40;7.45;;;;;;;;;;2025808;29;20028;-82
2023/12/31 06:41:37;;;;;;;9.15;6.80;;;;;;;;;;2031096;29;20024;-83
2023/12/31 06:43:13;;;;;;;8.18;7.38;;;;;;;;;;2032179;29;20497;-81
2023/12/31 06:46:17;;;;;;;35.78;12.15;;;;;;;;;;2025831;29;20116;-82
2023/12/31 06:47:38;;;;;;;10.32;7.43;;;;;;;;;;2018331;29;20048;-83
2023/12/31 06:49:08;;;;;;;9.68;7.20;;;;;;;;;;2009957;29;20030;-82
2023/12/31 06:50:29;;;;;;;8.57;7.40;;;;;;;;;;2016100;29;20025;-84
2023/12/31 06:52:09;;;;;;;11.93;8.03;;;;;;;;;;2010313;29;20046;-83
2023/12/31 06:53:35;;;;;;;10.52;6.80;;;;;;;;;;2017703;29;20375;-83
2023/12/31 06:54:59;;;;;;;8.13;6.93;;;;;;;;;;2014780;29;20440;-83
2023/12/31 06:56:22;;;;;;;26.88;13.10;;;;;;;;;;2022328;29;20033;-81
2023/12/31 06:57:47;;;;;;;8.75;7.50;;;;;;;;;;2032946;29;20064;-83
2023/12/31 06:59:14;;;;;;;8.30;7.28;;;;;;;;;;2025348;29;20029;-82
2023/12/31 07:00:56;;;;;;;7.68;6.88;;;;;;;;;;2023809;29;20040;-83
2023/12/31 07:02:32;;;;;;;8.52;7.20;;;;;;;;;;2017847;29;20021;-83
2023/12/31 07:04:03;;;;;;;9.13;7.10;;;;;;;;;;2017657;29;20033;-83
2023/12/31 07:05:47;;;;;;;8.90;8.00;;;;;;;;;;2016402;29;20033;-82
2023/12/31 07:07:20;;;;;;;9.93;6.88;;;;;;;;;;2025129;29;20043;-82
2023/12/31 07:08:41;;;;;;;8.40;6.75;;;;;;;;;;2033995;29;20401;-84
2023/12/31 07:10:08;;;;;;;10.05;8.52;;;;;;;;;;2033862;29;20039;-83
2023/12/31 07:11:29;;;;;;;9.80;6.85;;;;;;;;;;2017615;29;20041;-83
2023/12/31 07:12:53;;;;;;;9.15;6.95;;;;;;;;;;2028303;29;20028;-83
2023/12/31 07:14:24;;;;;;;;;;;;;;;;;;;;;
2023/12/31 07:15:45;;;;;;;7.93;7.22;;;;;;;;;;2033123;29;20032;-83
2023/12/31 07:17:06;;;;;;;7.75;6.82;;;;;;;;;;2021322;29;20025;-83
2023/12/31 07:18:39;;;;;;;8.30;7.38;;;;;;;;;;2032344;29;20043;-83
2023/12/31 07:20:00;;;;;;;12.55;7.60;;;;;;;;;;2033565;29;20024;-84
2023/12/31 07:21:22;;;;;;;9.10;7.38;;;;;;;;;;2035341;29;20137;-84
2023/12/31 07:22:43;;;;;;;10.18;6.82;;;;;;;;;;2040292;29;20043;-83
2023/12/31 07:24:13;;;;;;;8.85;6.80;;;;;;;;;;2040824;29;20111;-83
2023/12/31 07:25:35;;;;;;;10.13;7.30;;;;;;;;;;2032529;29;20059;-83
2023/12/31 07:27:05;;;;;;;7.95;6.90;;;;;;;;;;2034645;29;20047;-84
2023/12/31 07:28:29;;;;;;;8.57;6.68;;;;;;;;;;2039816;29;20451;-84
2023/12/31 07:29:53;;;;;;;10.65;8.18;;;;;;;;;;2039526;29;20039;-82
2023/12/31 07:31:14;;;;;;;8.38;7.32;;;;;;;;;;2031692;29;20420;-83
2023/12/31 07:32:46;;;;;;;8.00;6.80;;;;;;;;;;2025210;29;20464;-83
2023/12/31 07:34:07;;;;;;;8.82;7.22;;;;;;;;;;2025475;29;20044;-83
2023/12/31 07:35:31;;;;;;;7.55;6.82;;;;;;;;;;2024386;29;20028;-88
2023/12/31 07:36:55;;;;;;;62.42;16.10;;;;;;;;;;2023701;29;20044;-89
2023/12/31 07:38:28;;;;;;;10.40;7.60;;;;;;;;;;2042897;29;20035;-88
2023/12/31 07:39:55;;;;;;;8.20;7.05;;;;;;;;;;2033398;29;20047;-88
2023/12/31 07:41:18;;;;;;;9.23;7.35;;;;;;;;;;2034599;29;20032;-87
2023/12/31 07:42:51;;;;;;;8.27;7.38;;;;;;;;;;2033262;29;20036;-88
2023/12/31 07:44:12;;;;;;;9.75;7.60;;;;;;;;;;2040821;29;20527;-88
2023/12/31 07:45:33;;;;;;;8.38;7.47;;;;;;;;;;2035395;29;20047;-88
2023/12/31 07:46:57;;;;;;;25.17;11.00;;;;;;;;;;2029827;29;20431;-88
2023/12/31 07:48:33;;;;;;;10.57;7.55;;;;;;;;;;2038515;29;20024;-84
2023/12/31 07:50:16;;;;;;;9.60;7.70;;;;;;;;;;2034101;29;20088;-84
2023/12/31 07:51:37;;;;;;;10.05;7.57;;;;;;;;;;2040762;29;20036;-84
2023/12/31 07:53:20;;;;;;;11.50;8.38;;;;;;;;;;2027800;29;20389;-84
2023/12/31 07:54:41;;;;;;;8.20;7.22;;;;;;;;;;2022470;29;20033;-84
2023/12/31 07:56:07;;;;;;;9.63;6.93;;;;;;;;;;2017297;29;20025;-84
2023/12/31 07:57:34;;;;;;;11.18;7.78;;;;;;;;;;2015786;29;20041;-84
2023/12/31 07:59:08;;;;;;;7.60;6.97;;;;;;;;;;2018032;29;20048;-84
2023/12/31 08:00:38;;;;;;;8.70;6.88;;;;;;;;;;2025413;29;20458;-84
2023/12/31 08:02:14;;;;;;;9.05;7.85;;;;;;;;;;2017698;29;20029;-85
2023/12/31 08:03:38;;;;;;;10.85;6.90;;;;;;;;;;2010462;29;20034;-84
2023/12/31 08:05:15;;;;;;;8.18;7.30;;;;;;;;;;2016054;29;20054;-84
2023/12/31 08:06:51;;;;;;;9.75;6.80;;;;;;;;;;2017455;29;20490;-82
2023/12/31 08:08:12;;;;;;;8.90;7.13;;;;;;;;;;2017382;29;20037;-83
2023/12/31 08:09:33;;;;;;;8.93;7.35;;;;;;;;;;2030275;29;20024;-83
2023/12/31 08:10:59;;;;;;;7.47;6.60;;;;;;;;;;2027248;29;20028;-84
2023/12/31 08:12:32;;;;;;;9.60;7.10;;;;;;;;;;2017444;29;20049;-83
2023/12/31 08:13:55;;;;;;;11.30;7.43;;;;;;;;;;2009029;29;20034;-84
2023/12/31 08:15:19;;;;;;;8.30;7.03;;;;;;;;;;2029756;29;20440;-83
2023/12/31 08:16:40;;;;;;;8.48;7.57;;;;;;;;;;2028316;29;20033;-83
2023/12/31 08:18:16;;;;;;;8.70;7.63;;;;;;;;;;2015123;29;20051;-84
2023/12/31 08:19:43;;;;;;;9.50;7.50;;;;;;;;;;2017132;29;20029;-83
2023/12/31 08:21:22;;;;;;;9.52;6.60;;;;;;;;;;2023481;29;20449;-83
2023/12/31 08:22:46;;;;;;;10.85;7.88;;;;;;;;;;2024506;29;20513;-82
2023/12/31 08:24:18;;;;;;;15.60;7.82;;;;;;;;;;2031871;29;20033;-84
2023/12/31 08:27:34;;;;;;;9.40;7.82;;;;;;;;;;2030768;29;20085;-83
2023/12/31 08:29:04;;;;;;;8.77;7.68;;;;;;;;;;2033226;29;20039;-80
2023/12/31 08:30:34;;;;;;;9.68;8.25;;;;;;;;;;2031491;29;20069;-82
2023/12/31 08:31:58;;;;;;;8.05;6.68;;;;;;;;;;2032161;29;20573;-82
2023/12/31 08:33:19;;;;;;;8.95;7.70;;;;;;;;;;2023721;29;20033;-81
2023/12/31 08:34:44;;;;;;;8.93;8.02;;;;;;;;;;2029337;29;20039;-83
2023/12/31 08:36:27;;;;;;;7.43;6.68;;;;;;;;;;2024625;29;20039;-82
2023/12/31 08:38:03;;;;;;;;;;;;;;;;;;2031734;29;20047;-85
2023/12/31 08:39:37;;;;;;;8.10;6.30;;;;;;;;;;2033083;29;19907;-83
2023/12/31 08:41:21;;;;;;;7.60;6.45;;;;;;;;;;2027267;29;20409;-83
2023/12/31 08:42:42;;;;;;;8.00;7.05;;;;;;;;;;2035212;29;20059;-83
2023/12/31 08:44:15;;;;;;;9.15;6.68;;;;;;;;;;2039615;29;20042;-82
2023/12/31 08:45:46;;;;;;;10.07;7.25;;;;;;;;;;2028849;29;20033;-83
2023/12/31 08:47:22;;;;;;;10.88;7.45;;;;;;;;;;2025008;29;20485;-84
2023/12/31 08:48:43;;;;;;;8.50;7.00;;;;;;;;;;2025243;29;20489;-83
2023/12/31 08:50:14;;;;;;;11.77;7.60;;;;;;;;;;2024796;29;20029;-83
2023/12/31 08:51:44;;;;;;;8.27;6.65;;;;;;;;;;2023855;29;20041;-82
2023/12/31 08:53:21;;;;;;;10.57;7.30;;;;;;;;;;2024786;29;20040;-83
2023/12/31 08:54:50;;;;;;;12.48;6.80;;;;;;;;;;2021036;29;20037;-83